Airfield :
LOGIN :

Register | Disclaimer

   EN    FR    IT 

 










Legend :    VFR   Marginal VFR   IFR   Intensive IFR   Very Intensive IFR
Visi :
Ceiling :
>= 8 km
>= 3000ft
5 to 8 km
1000 to 3000 ft
1500m to 5 km
500 to 1000 ft
800 to 1500m
200 to 500 ft
< 800m
< 200 ft
Symbols :   Thunderstorms  Fog  Heavy snow  Heavy precipitations  Wind > 20 kt
SIGMETs :     Misc.  Thunderstorms  Icing  Turbulence  Mountain Waves  Volcanic Ashes






- Airport Elevation : 48 ft
- IATA code : PSR


LIBP - Abruzzo Pescara

CURRENT METAR :
  • 280720Z AUTO VRB02KT 9999 BKN140/// 25/16 Q1009

EXPIRED METARs :
  • 280650Z AUTO VRB01KT 9999 FEW140/// 26/16 Q1009
  • 280620Z AUTO VRB02KT 9999 FEW140/// 24/16 Q1009
  • 280550Z AUTO VRB02KT 9999 NCD 22/16 Q1009
  • 280520Z AUTO 22006KT 9999 BKN160/// 21/16 Q1009
  • 280450Z AUTO 23005KT 9999 BKN150/// 21/16 Q1009

TAF TAF LIBP
Valid from the 28 at 06:00 until the 29 at 06:00 UTC


280500Z 2806/2906 VRB04KT 9999 SCT040
BECMG 2808/2810 07012KT
BECMG 2815/2817 VRB06KT



MET'MAP, your aeronautical weather chart ! - Copyright ORBIFLY December 2007 - Disclaimer

ORBIFLY MET'MAP TEAM :

Programming & Development : Alexandra Zaïnal
Original concept : Baudouin d'Aumeries
Technical & hardware support : Manuel Goepfert
Assistance : Marc-Olivier Méhu

Contact : metmap@orbifly.com




SOURCES & CREDITS :

   NOAA